Time;durP1;ratioP1;P1;durP2;ratioP2;P2;SDS_P1;SDS_P2;PMS_P1;PMS_P2;Temp;Humidity;BMP_temperature;BMP_pressure;BME280_temperature;BME280_humidity;BME280_pressure;Samples;Min_cycle;Max_cycle;Signal;HPM_P1;HPM_P2
2019/09/15 00:00:52;;;;;;;6.8;4.7;;;;;;;;;;;;;
2019/09/15 00:03:09;;;;;;;5.4;4.5;;;;;;;;;;;;;
2019/09/15 00:06:16;;;;;;;6.6;4.1;;;;;;;;;;;;;
2019/09/15 00:08:27;;;;;;;9.6;4.9;;;;;;;;;;;;;
2019/09/15 00:10:55;;;;;;;5.7;4.2;;;;;;;;;;;;;
2019/09/15 00:13:20;;;;;;;7.2;4.9;;;;;;;;;;;;;
2019/09/15 00:15:43;;;;;;;6.9;5;;;;;;;;;;;;;
2019/09/15 00:18:10;;;;;;;6.3;5;;;;;;;;;;;;;
2019/09/15 00:20:38;;;;;;;9;5.2;;;;;;;;;;;;;
2019/09/15 00:23:04;;;;;;;5.7;4.4;;;;;;;;;;;;;
2019/09/15 00:25:31;;;;;;;6;4.1;;;;;;;;;;;;;
2019/09/15 00:27:58;;;;;;;6;4.5;;;;;;;;;;;;;
2019/09/15 00:30:24;;;;;;;6.2;4.3;;;;;;;;;;;;;
2019/09/15 00:32:53;;;;;;;7.3;4.9;;;;;;;;;;;;;
2019/09/15 00:35:15;;;;;;;6.9;4.6;;;;;;;;;;;;;
2019/09/15 00:37:39;;;;;;;7.3;4.5;;;;;;;;;;;;;
2019/09/15 00:40:05;;;;;;;6.2;4.2;;;;;;;;;;;;;
2019/09/15 00:42:32;;;;;;;9.1;4.4;;;;;;;;;;;;;
2019/09/15 00:47:22;;;;;;;5.2;4;;;;;;;;;;;;;
2019/09/15 00:49:52;;;;;;;6.6;4.3;;;;;;;;;;;;;
2019/09/15 00:52:16;;;;;;;7.9;4.3;;;;;;;;;;;;;
2019/09/15 00:54:41;;;;;;;5.2;4.1;;;;;;;;;;;;;
2019/09/15 00:57:17;;;;;;;6.9;4;;;;;;;;;;;;;
2019/09/15 00:59:35;;;;;;;8;4.7;;;;;;;;;;;;;
2019/09/15 01:01:59;;;;;;;6.9;4.6;;;;;;;;;;;;;
2019/09/15 01:04:23;;;;;;;9.3;5.1;;;;;;;;;;;;;
2019/09/15 01:06:55;;;;;;;6.1;5;;;;;;;;;;;;;
2019/09/15 01:09:19;;;;;;;5.7;4.9;;;;;;;;;;;;;
2019/09/15 01:11:43;;;;;;;7.9;5.4;;;;;;;;;;;;;
2019/09/15 01:14:12;;;;;;;8.8;5.6;;;;;;;;;;;;;
2019/09/15 01:16:37;;;;;;;6.4;5.5;;;;;;;;;;;;;
2019/09/15 01:19:02;;;;;;;5.5;4.4;;;;;;;;;;;;;
2019/09/15 01:21:32;;;;;;;9.1;4.8;;;;;;;;;;;;;
2019/09/15 01:23:57;;;;;;;6;4.8;;;;;;;;;;;;;
2019/09/15 01:26:26;;;;;;;6.3;5.1;;;;;;;;;;;;;
2019/09/15 01:28:49;;;;;;;7.5;5.2;;;;;;;;;;;;;
2019/09/15 01:31:13;;;;;;;6.5;5.3;;;;;;;;;;;;;
2019/09/15 01:33:38;;;;;;;10;5.2;;;;;;;;;;;;;
2019/09/15 01:36:07;;;;;;;7.9;5.2;;;;;;;;;;;;;
2019/09/15 01:38:30;;;;;;;6.5;5.1;;;;;;;;;;;;;
2019/09/15 01:40:54;;;;;;;6.9;4.9;;;;;;;;;;;;;
2019/09/15 01:43:19;;;;;;;6.5;5.4;;;;;;;;;;;;;
2019/09/15 01:45:49;;;;;;;6;4.7;;;;;;;;;;;;;
2019/09/15 01:49:22;;;;;;;6.7;4.6;;;;;;;;;;;;;
2019/09/15 01:50:37;;;;;;;8.1;4.9;;;;;;;;;;;;;
2019/09/15 01:53:01;;;;;;;6.3;4.7;;;;;;;;;;;;;
2019/09/15 01:55:29;;;;;;;6.9;5.4;;;;;;;;;;;;;
2019/09/15 01:57:52;;;;;;;7.8;5.3;;;;;;;;;;;;;
2019/09/15 02:00:16;;;;;;;6.5;4.7;;;;;;;;;;;;;
2019/09/15 02:03:18;;;;;;;6.2;4.5;;;;;;;;;;;;;
2019/09/15 02:05:31;;;;;;;8.2;4.3;;;;;;;;;;;;;
2019/09/15 02:07:54;;;;;;;8.4;4.6;;;;;;;;;;;;;
2019/09/15 02:10:20;;;;;;;7;4.4;;;;;;;;;;;;;
2019/09/15 02:15:30;;;;;;;5.3;4.8;;;;;;;;;;;;;
2019/09/15 02:17:56;;;;;;;6.7;4.8;;;;;;;;;;;;;
2019/09/15 02:20:30;;;;;;;6.3;4.6;;;;;;;;;;;;;
2019/09/15 02:22:46;;;;;;;5.5;4.1;;;;;;;;;;;;;
2019/09/15 02:25:12;;;;;;;6.6;4.5;;;;;;;;;;;;;
2019/09/15 02:27:36;;;;;;;8.4;4.4;;;;;;;;;;;;;
2019/09/15 02:30:08;;;;;;;6.2;4.8;;;;;;;;;;;;;
2019/09/15 02:32:32;;;;;;;6.2;5.1;;;;;;;;;;;;;
2019/09/15 02:35:03;;;;;;;5.3;4.8;;;;;;;;;;;;;
2019/09/15 02:37:28;;;;;;;7.3;4.3;;;;;;;;;;;;;
2019/09/15 02:39:53;;;;;;;7.6;5;;;;;;;;;;;;;
2019/09/15 02:42:20;;;;;;;5.6;5;;;;;;;;;;;;;
2019/09/15 02:44:43;;;;;;;7.2;4.7;;;;;;;;;;;;;
2019/09/15 02:47:10;;;;;;;5.1;4.6;;;;;;;;;;;;;
2019/09/15 02:49:39;;;;;;;8.1;4.5;;;;;;;;;;;;;
2019/09/15 02:52:00;;;;;;;7.7;4.7;;;;;;;;;;;;;
2019/09/15 02:54:27;;;;;;;5.6;5;;;;;;;;;;;;;
2019/09/15 02:56:55;;;;;;;5.5;4.6;;;;;;;;;;;;;
2019/09/15 02:59:21;;;;;;;6.8;5;;;;;;;;;;;;;
2019/09/15 03:01:42;;;;;;;6.9;4.5;;;;;;;;;;;;;
2019/09/15 03:04:08;;;;;;;7.2;4.8;;;;;;;;;;;;;
2019/09/15 03:06:35;;;;;;;5;4.3;;;;;;;;;;;;;
2019/09/15 03:09:01;;;;;;;6.8;4.3;;;;;;;;;;;;;
2019/09/15 03:11:25;;;;;;;5.2;4.5;;;;;;;;;;;;;
2019/09/15 03:13:48;;;;;;;4.4;4;;;;;;;;;;;;;
2019/09/15 03:16:13;;;;;;;7.2;4.9;;;;;;;;;;;;;
2019/09/15 03:18:42;;;;;;;6;4.4;;;;;;;;;;;;;
2019/09/15 03:21:08;;;;;;;6.2;4.4;;;;;;;;;;;;;
2019/09/15 03:23:29;;;;;;;5.9;4.7;;;;;;;;;;;;;
2019/09/15 03:28:26;;;;;;;6.1;4.6;;;;;;;;;;;;;
2019/09/15 03:30:48;;;;;;;7.1;4.5;;;;;;;;;;;;;
2019/09/15 03:33:10;;;;;;;7.5;4.5;;;;;;;;;;;;;
2019/09/15 03:35:36;;;;;;;7.3;4.4;;;;;;;;;;;;;
2019/09/15 03:38:05;;;;;;;6.6;4.5;;;;;;;;;;;;;
2019/09/15 03:40:27;;;;;;;4.8;4.2;;;;;;;;;;;;;
2019/09/15 03:42:53;;;;;;;5.8;4.3;;;;;;;;;;;;;
2019/09/15 03:45:21;;;;;;;6.6;4.5;;;;;;;;;;;;;
2019/09/15 03:47:45;;;;;;;5.2;4.2;;;;;;;;;;;;;
2019/09/15 03:50:09;;;;;;;5.5;4.5;;;;;;;;;;;;;
2019/09/15 03:52:41;;;;;;;5.9;4.5;;;;;;;;;;;;;
2019/09/15 03:55:07;;;;;;;5.7;4.7;;;;;;;;;;;;;
2019/09/15 03:57:36;;;;;;;5.8;4.7;;;;;;;;;;;;;
2019/09/15 04:00:00;;;;;;;6.3;4.9;;;;;;;;;;;;;
2019/09/15 04:02:44;;;;;;;5.4;4.7;;;;;;;14.56;85.47266;947.3702;;;;
2019/09/15 04:05:04;;;;;;;8.2;5.4;;;;;;;14.41;85.83398;947.3226;;;;
2019/09/15 04:07:33;;;;;;;6.1;5.1;;;;;;;14.31;86.38086;947.3314;;;;
2019/09/15 04:10:00;;;;;;;7.4;4.9;;;;;;;14.35;85.9502;947.363;;;;
2019/09/15 04:12:33;;;;;;;5.3;4.8;;;;;;;14.45;85.09473;947.3428;;;;
2019/09/15 04:15:02;;;;;;;5.9;4.8;;;;;;;14.5;84.63086;947.332;;;;
2019/09/15 04:17:26;;;;;;;5.6;4.7;;;;;;;14.53;84.55664;947.3475;;;;
2019/09/15 04:19:55;;;;;;;9.3;5;;;;;;;14.51;84.74805;947.3257;;;;
2019/09/15 04:22:21;;;;;;;8.5;5.1;;;;;;;14.47;84.38379;947.2949;;;;
2019/09/15 04:24:50;;;;;;;5.9;5.3;;;;;;;14.4;85.21191;947.2913;;;;
2019/09/15 04:27:22;;;;;;;7;5.1;;;;;;;14.39;85.48535;947.3417;;;;
2019/09/15 04:29:48;;;;;;;8.5;5;;;;;;;14.35;85.69727;947.2908;;;;
2019/09/15 04:32:16;;;;;;;11.1;5;;;;;;;14.41;84.92383;947.3387;;;;
2019/09/15 04:34:46;;;;;;;5.1;4.6;;;;;;;14.43;84.66504;947.3275;;;;
2019/09/15 04:37:17;;;;;;;5.5;4.7;;;;;;;14.46;84.97949;947.3165;;;;
2019/09/15 04:39:47;;;;;;;5.5;4.9;;;;;;;14.42;85.10059;947.3078;;;;
2019/09/15 04:42:11;;;;;;;6.2;4.8;;;;;;;14.39;85.01074;947.2647;;;;
2019/09/15 04:44:45;;;;;;;7.7;5.6;;;;;;;14.2;85.96582;947.2851;;;;
2019/09/15 04:47:16;;;;;;;6;4.8;;;;;;;14.27;85.3457;947.3205;;;;
2019/09/15 04:49:41;;;;;;;5.1;4.6;;;;;;;;;;;;;
2019/09/15 04:52:11;;;;;;;5.4;4.7;;;;;;;;;;;;;
2019/09/15 04:54:32;;;;;;;5.5;4.5;;;;;;;;;;;;;
2019/09/15 04:56:57;;;;;;;6.5;4.8;;;;;;;;;;;;;
2019/09/15 05:00:13;;;;;;;6;4.5;;;;;;;;;;;;;
2019/09/15 05:02:24;;;;;;;7.6;4.7;;;;;;;;;;;;;
2019/09/15 05:04:49;;;;;;;6.3;4.8;;;;;;;;;;;;;
2019/09/15 05:07:18;;;;;;;5.7;4.8;;;;;;;;;;;;;
2019/09/15 05:09:43;;;;;;;7.8;5;;;;;;;;;;;;;
2019/09/15 05:12:14;;;;;;;7.2;4.5;;;;;;;;;;;;;
2019/09/15 05:17:22;;;;;;;9.4;5;;;;;;;;;;;;;
2019/09/15 05:19:49;;;;;;;6.8;5;;;;;;;;;;;;;
2019/09/15 05:22:15;;;;;;;6.9;4.9;;;;;;;;;;;;;
2019/09/15 05:24:40;;;;;;;5.9;4.6;;;;;;;;;;;;;
2019/09/15 05:27:18;;;;;;;5.2;4.7;;;;;;;;;;;;;
2019/09/15 05:29:40;;;;;;;7.8;5.3;;;;;;;;;;;;;
2019/09/15 05:32:04;;;;;;;6.5;5.1;;;;;;;;;;;;;
2019/09/15 05:37:13;;;;;;;7.2;5.2;;;;;;;;;;;;;
2019/09/15 05:39:33;;;;;;;7.7;5.4;;;;;;;;;;;;;
2019/09/15 05:41:58;;;;;;;7.9;4.7;;;;;;;;;;;;;
2019/09/15 05:44:24;;;;;;;6.2;5;;;;;;;;;;;;;
2019/09/15 05:46:50;;;;;;;5.6;4.6;;;;;;;;;;;;;
2019/09/15 05:49:13;;;;;;;7.5;4.6;;;;;;;;;;;;;
2019/09/15 05:51:39;;;;;;;7.1;4.9;;;;;;;;;;;;;
2019/09/15 05:54:11;;;;;;;5.9;4.3;;;;;;;;;;;;;
2019/09/15 05:56:28;;;;;;;4.7;3.9;;;;;;;;;;;;;
2019/09/15 05:58:56;;;;;;;7.2;3.7;;;;;;;;;;;;;
2019/09/15 06:01:22;;;;;;;5.9;4.5;;;;;;;;;;;;;
2019/09/15 06:03:50;;;;;;;8.3;4.1;;;;;;;;;;;;;
2019/09/15 06:06:17;;;;;;;7.5;3.7;;;;;;;;;;;;;
2019/09/15 06:08:41;;;;;;;7.2;3.7;;;;;;;;;;;;;
2019/09/15 06:11:09;;;;;;;6.1;3.8;;;;;;;;;;;;;
2019/09/15 06:13:34;;;;;;;8.8;3.5;;;;;;;;;;;;;
2019/09/15 06:15:58;;;;;;;4.8;3.3;;;;;;;;;;;;;
2019/09/15 06:18:21;;;;;;;5.2;3.3;;;;;;;;;;;;;
2019/09/15 06:20:51;;;;;;;6.2;3.5;;;;;;;;;;;;;
2019/09/15 06:23:15;;;;;;;5;3.3;;;;;;;;;;;;;
2019/09/15 06:25:38;;;;;;;6.7;3.3;;;;;;;;;;;;;
2019/09/15 06:28:02;;;;;;;5.2;3.1;;;;;;;;;;;;;
2019/09/15 06:30:29;;;;;;;5.7;3.1;;;;;;;;;;;;;
2019/09/15 06:32:55;;;;;;;5.9;3;;;;;;;;;;;;;
2019/09/15 06:35:19;;;;;;;8.8;3.1;;;;;;;;;;;;;
2019/09/15 06:37:48;;;;;;;4.9;3.2;;;;;;;;;;;;;
2019/09/15 06:40:10;;;;;;;5.7;3.1;;;;;;;;;;;;;
2019/09/15 06:42:36;;;;;;;4.4;3;;;;;;;;;;;;;
2019/09/15 06:45:19;;;;;;;7.4;4.1;;;;;;;;;;;;;
2019/09/15 06:47:43;;;;;;;6.7;3.8;;;;;;;;;;;;;
2019/09/15 06:50:14;;;;;;;4.8;2.7;;;;;;;;;;;;;
2019/09/15 06:52:38;;;;;;;3.5;2.2;;;;;;;;;;;;;
2019/09/15 06:55:00;;;;;;;4.7;2.3;;;;;;;;;;;;;
2019/09/15 06:57:29;;;;;;;3.9;2.6;;;;;;;;;;;;;
2019/09/15 07:00:16;;;;;;;5.2;2.4;;;;;;;;;;;;;
2019/09/15 07:02:39;;;;;;;3.7;2.2;;;;;;;;;;;;;
2019/09/15 07:05:17;;;;;;;3.3;2.1;;;;;;;;;;;;;
2019/09/15 07:07:45;;;;;;;3.8;2.4;;;;;;;;;;;;;
2019/09/15 07:10:07;;;;;;;3.5;2.2;;;;;;;;;;;;;
2019/09/15 07:15:02;;;;;;;4.5;2.2;;;;;;;;;;;;;
2019/09/15 07:17:25;;;;;;;3.2;2.1;;;;;;;;;;;;;
2019/09/15 07:19:49;;;;;;;2.1;1.9;;;;;;;;;;;;;
2019/09/15 07:22:19;;;;;;;4.7;1.9;;;;;;;;;;;;;
2019/09/15 07:24:41;;;;;;;4.2;2.2;;;;;;;;;;;;;
2019/09/15 07:27:08;;;;;;;2.3;1.8;;;;;;;;;;;;;
2019/09/15 07:29:39;;;;;;;2.4;1.7;;;;;;;;;;;;;
2019/09/15 07:32:02;;;;;;;3.5;1.9;;;;;;;;;;;;;
2019/09/15 07:34:26;;;;;;;2.8;1.9;;;;;;;;;;;;;
2019/09/15 07:36:55;;;;;;;2.2;1.7;;;;;;;;;;;;;
2019/09/15 07:39:16;;;;;;;4.8;1.8;;;;;;;;;;;;;
2019/09/15 07:41:42;;;;;;;3.7;1.8;;;;;;;;;;;;;
2019/09/15 07:44:07;;;;;;;5.6;1.9;;;;;;;;;;;;;
2019/09/15 07:46:38;;;;;;;5;2;;;;;;;;;;;;;
2019/09/15 07:49:00;;;;;;;2.1;1.5;;;;;;;;;;;;;
2019/09/15 07:51:24;;;;;;;2.2;1.6;;;;;;;;;;;;;
2019/09/15 07:53:48;;;;;;;3.6;1.7;;;;;;;;;;;;;
2019/09/15 07:56:20;;;;;;;4;1.6;;;;;;;;;;;;;
2019/09/15 07:58:49;;;;;;;2.5;1.7;;;;;;;;;;;;;
2019/09/15 08:01:14;;;;;;;3.6;1.6;;;;;;;;;;;;;
2019/09/15 08:03:43;;;;;;;4.5;1.5;;;;;;;;;;;;;
2019/09/15 08:06:11;;;;;;;2.4;1.3;;;;;;;;;;;;;
2019/09/15 08:08:29;;;;;;;3.4;1.4;;;;;;;;;;;;;
2019/09/15 08:10:56;;;;;;;3.1;1.6;;;;;;;;;;;;;
2019/09/15 08:13:24;;;;;;;3.8;1.4;;;;;;;;;;;;;
2019/09/15 08:15:48;;;;;;;3.2;1.3;;;;;;;;;;;;;
2019/09/15 08:18:21;;;;;;;1.7;1.3;;;;;;;;;;;;;
2019/09/15 08:20:44;;;;;;;2.2;1.4;;;;;;;;;;;;;
2019/09/15 08:23:08;;;;;;;2;1.4;;;;;;;;;;;;;
2019/09/15 08:25:31;;;;;;;2.7;1.4;;;;;;;;;;;;;
2019/09/15 08:28:01;;;;;;;3.7;1.2;;;;;;;;;;;;;
2019/09/15 08:30:25;;;;;;;2.9;1.4;;;;;;;;;;;;;
2019/09/15 08:32:49;;;;;;;2.4;1.3;;;;;;;;;;;;;
2019/09/15 08:35:14;;;;;;;3.1;1.5;;;;;;;;;;;;;
2019/09/15 08:37:41;;;;;;;2.7;1.3;;;;;;;;;;;;;
2019/09/15 08:40:06;;;;;;;3.1;1.5;;;;;;;;;;;;;
2019/09/15 08:42:31;;;;;;;1.9;1.4;;;;;;;;;;;;;
2019/09/15 08:44:59;;;;;;;3.7;1.5;;;;;;;;;;;;;
2019/09/15 08:47:26;;;;;;;3.9;1.2;;;;;;;;;;;;;
2019/09/15 08:49:47;;;;;;;1.8;1.4;;;;;;;;;;;;;
2019/09/15 08:52:11;;;;;;;1.9;1.4;;;;;;;;;;;;;
2019/09/15 08:54:39;;;;;;;4.9;1.5;;;;;;;;;;;;;
2019/09/15 08:57:07;;;;;;;2.6;1.3;;;;;;;;;;;;;
2019/09/15 08:59:28;;;;;;;1.9;1.3;;;;;;;;;;;;;
2019/09/15 09:01:52;;;;;;;3.7;1.4;;;;;;;;;;;;;
2019/09/15 09:04:22;;;;;;;3.5;1.4;;;;;;;;;;;;;
2019/09/15 09:06:44;;;;;;;2.4;1.3;;;;;;;;;;;;;
2019/09/15 09:09:10;;;;;;;3.2;1.5;;;;;;;;;;;;;
2019/09/15 09:11:34;;;;;;;2.6;1.4;;;;;;;;;;;;;
2019/09/15 09:14:02;;;;;;;1.3;1.2;;;;;;;;;;;;;
2019/09/15 09:17:26;;;;;;;3.5;1.5;;;;;;;;;;;;;
2019/09/15 09:18:53;;;;;;;2.4;1.3;;;;;;;;;;;;;
2019/09/15 09:21:14;;;;;;;3.9;1.6;;;;;;;;;;;;;
2019/09/15 09:23:45;;;;;;;3.5;1.3;;;;;;;;;;;;;
2019/09/15 09:26:06;;;;;;;2.2;1.6;;;;;;;;;;;;;
2019/09/15 09:28:34;;;;;;;2.5;1.3;;;;;;;;;;;;;
2019/09/15 09:31:03;;;;;;;2.9;1.5;;;;;;;;;;;;;
2019/09/15 09:33:29;;;;;;;2.2;1.5;;;;;;;;;;;;;
2019/09/15 09:35:53;;;;;;;2.9;1.7;;;;;;;;;;;;;
2019/09/15 09:38:22;;;;;;;1.6;1.5;;;;;;;;;;;;;
2019/09/15 09:40:45;;;;;;;2.9;1.5;;;;;;;;;;;;;
2019/09/15 09:43:10;;;;;;;1.9;1.5;;;;;;;;;;;;;
2019/09/15 09:45:39;;;;;;;2.1;1.5;;;;;;;;;;;;;
2019/09/15 09:48:03;;;;;;;2.2;1.3;;;;;;;;;;;;;
2019/09/15 09:50:28;;;;;;;2;1.6;;;;;;;;;;;;;
2019/09/15 09:52:56;;;;;;;1.8;1.6;;;;;;;;;;;;;
2019/09/15 09:55:21;;;;;;;1.9;1.4;;;;;;;;;;;;;
2019/09/15 09:57:44;;;;;;;1.8;1.5;;;;;;;;;;;;;
2019/09/15 10:00:09;;;;;;;2.6;1.6;;;;;;;;;;;;;
2019/09/15 10:02:39;;;;;;;3.1;1.6;;;;;;;;;;;;;
2019/09/15 10:05:02;;;;;;;1.8;1.6;;;;;;;;;;;;;
2019/09/15 10:07:25;;;;;;;3.3;1.5;;;;;;;;;;;;;
2019/09/15 10:12:17;;;;;;;3.7;1.3;;;;;;;;;;;;;
2019/09/15 10:14:41;;;;;;;1.8;1.5;;;;;;;;;;;;;
2019/09/15 10:17:06;;;;;;;4;1.5;;;;;;;;;;;;;
2019/09/15 10:19:31;;;;;;;2.1;1.6;;;;;;;;;;;;;
2019/09/15 10:21:58;;;;;;;2.8;1.6;;;;;;;;;;;;;
2019/09/15 10:24:23;;;;;;;2.1;1.4;;;;;;;;;;;;;
2019/09/15 10:26:47;;;;;;;4.2;1.7;;;;;;;;;;;;;
2019/09/15 10:29:19;;;;;;;1.5;1.4;;;;;;;;;;;;;
2019/09/15 10:31:42;;;;;;;1.8;1.4;;;;;;;;;;;;;
2019/09/15 10:34:11;;;;;;;2.7;1.7;;;;;;;;;;;;;
2019/09/15 10:36:37;;;;;;;4.9;1.6;;;;;;;;;;;;;
2019/09/15 10:39:06;;;;;;;2.4;1.6;;;;;;;;;;;;;
2019/09/15 10:41:30;;;;;;;2.7;1.4;;;;;;;;;;;;;
2019/09/15 10:43:56;;;;;;;2.6;1.5;;;;;;;;;;;;;
2019/09/15 10:46:21;;;;;;;4.9;1.5;;;;;;;;;;;;;
2019/09/15 10:48:50;;;;;;;4.7;1.6;;;;;;;;;;;;;
2019/09/15 10:51:16;;;;;;;3;1.9;;;;;;;;;;;;;
2019/09/15 10:53:42;;;;;;;2.6;1.6;;;;;;;;;;;;;
2019/09/15 10:56:08;;;;;;;3.5;1.7;;;;;;;;;;;;;
2019/09/15 10:58:32;;;;;;;3.3;1.8;;;;;;;;;;;;;
2019/09/15 11:01:02;;;;;;;3;1.6;;;;;;;;;;;;;
2019/09/15 11:03:26;;;;;;;2.9;1.7;;;;;;;;;;;;;
2019/09/15 11:05:49;;;;;;;2.4;1.6;;;;;;;;;;;;;
2019/09/15 11:08:15;;;;;;;2.1;1.6;;;;;;;;;;;;;
2019/09/15 11:10:43;;;;;;;5.8;1.7;;;;;;;;;;;;;
2019/09/15 11:13:10;;;;;;;4.3;1.6;;;;;;;;;;;;;
2019/09/15 11:15:42;;;;;;;3.2;1.5;;;;;;;;;;;;;
2019/09/15 11:18:05;;;;;;;5.2;1.8;;;;;;;;;;;;;
2019/09/15 11:20:33;;;;;;;3;1.6;;;;;;;;;;;;;
2019/09/15 11:22:58;;;;;;;3.3;1.6;;;;;;;;;;;;;
2019/09/15 11:25:23;;;;;;;3.1;1.4;;;;;;;;;;;;;
2019/09/15 11:27:47;;;;;;;4.3;1.6;;;;;;;;;;;;;
2019/09/15 11:30:17;;;;;;;1.8;1.4;;;;;;;;;;;;;
2019/09/15 11:32:39;;;;;;;2.2;1.3;;;;;;;;;;;;;
2019/09/15 11:35:03;;;;;;;2.3;1.3;;;;;;;;;;;;;
2019/09/15 11:37:32;;;;;;;1.8;1.2;;;;;;;;;;;;;
2019/09/15 11:39:56;;;;;;;3.1;1.3;;;;;;;;;;;;;
2019/09/15 11:42:20;;;;;;;2.8;1.4;;;;;;;;;;;;;
2019/09/15 11:44:45;;;;;;;1.9;1.3;;;;;;;;;;;;;
2019/09/15 11:47:10;;;;;;;2.2;1.4;;;;;;;;;;;;;
2019/09/15 11:49:38;;;;;;;1.8;1.2;;;;;;;;;;;;;
2019/09/15 11:52:05;;;;;;;1.6;1.2;;;;;;;;;;;;;
2019/09/15 11:54:26;;;;;;;2.8;1.3;;;;;;;;;;;;;
2019/09/15 11:57:16;;;;;;;1.6;1.3;;;;;;;;;;;;;
2019/09/15 12:02:00;;;;;;;3.4;1.4;;;;;;;;;;;;;
2019/09/15 12:04:22;;;;;;;4.4;1.4;;;;;;;;;;;;;
2019/09/15 12:06:50;;;;;;;2.8;1.2;;;;;;;;;;;;;
2019/09/15 12:09:24;;;;;;;1.5;1.1;;;;;;;;;;;;;
2019/09/15 12:12:21;;;;;;;2.9;1.2;;;;;;;;;;;;;
2019/09/15 12:14:35;;;;;;;3.5;1.4;;;;;;;;;;;;;
2019/09/15 12:16:58;;;;;;;3.2;1.1;;;;;;;;;;;;;
2019/09/15 12:19:25;;;;;;;3.9;1.2;;;;;;;;;;;;;
2019/09/15 12:21:51;;;;;;;3;1.3;;;;;;;;;;;;;
2019/09/15 12:24:16;;;;;;;2.8;1.2;;;;;;;;;;;;;
2019/09/15 12:26:41;;;;;;;3;1.2;;;;;;;;;;;;;
2019/09/15 12:29:12;;;;;;;1.9;1;;;;;;;;;;;;;
2019/09/15 12:31:37;;;;;;;2;1.2;;;;;;;;;;;;;
2019/09/15 12:33:58;;;;;;;2.4;1.1;;;;;;;;;;;;;
2019/09/15 12:36:23;;;;;;;3.6;1.3;;;;;;;;;;;;;
2019/09/15 12:38:47;;;;;;;3;1.1;;;;;;;;;;;;;
2019/09/15 12:41:17;;;;;;;2.6;1.3;;;;;;;;;;;;;
2019/09/15 12:43:40;;;;;;;2.4;1.1;;;;;;;;;;;;;
2019/09/15 12:46:04;;;;;;;1.7;1.1;;;;;;;;;;;;;
2019/09/15 12:48:34;;;;;;;2.4;1.2;;;;;;;;;;;;;
2019/09/15 12:50:57;;;;;;;2.9;1.2;;;;;;;;;;;;;
2019/09/15 12:53:22;;;;;;;2;1.4;;;;;;;;;;;;;
2019/09/15 12:55:55;;;;;;;1.3;1.1;;;;;;;;;;;;;
2019/09/15 12:58:21;;;;;;;3.1;1.1;;;;;;;;;;;;;
2019/09/15 13:01:11;;;;;;;1.2;1;;;;;;;;;;;;;
2019/09/15 13:03:29;;;;;;;1.5;1.1;;;;;;;;;;;;;
2019/09/15 13:08:19;;;;;;;2.6;1.1;;;;;;;;;;;;;
2019/09/15 13:10:46;;;;;;;2.9;1.3;;;;;;;;;;;;;
2019/09/15 13:13:09;;;;;;;1.7;1.2;;;;;;;;;;;;;
2019/09/15 13:15:46;;;;;;;2;1.2;;;;;;;;;;;;;
2019/09/15 13:18:10;;;;;;;3.6;1.3;;;;;;;;;;;;;
2019/09/15 13:20:40;;;;;;;2.7;1.3;;;;;;;;;;;;;
2019/09/15 13:25:31;;;;;;;1.5;1;;;;;;;;;;;;;
2019/09/15 13:27:59;;;;;;;4.5;1.3;;;;;;;;;;;;;
2019/09/15 13:30:21;;;;;;;1.4;1.1;;;;;;;;;;;;;
2019/09/15 13:32:52;;;;;;;2;1.1;;;;;;;;;;;;;
2019/09/15 13:35:15;;;;;;;1.7;1.1;;;;;;;;;;;;;
2019/09/15 13:37:40;;;;;;;1.6;1;;;;;;;;;;;;;
2019/09/15 13:40:04;;;;;;;1.6;1.1;;;;;;;;;;;;;
2019/09/15 13:42:36;;;;;;;1.5;1;;;;;;;;;;;;;
2019/09/15 13:45:00;;;;;;;1.7;1.1;;;;;;;;;;;;;
2019/09/15 13:47:28;;;;;;;2.7;1.2;;;;;;;;;;;;;
2019/09/15 13:49:55;;;;;;;3.8;1.2;;;;;;;;;;;;;
2019/09/15 13:52:24;;;;;;;1.2;1.1;;;;;;;;;;;;;
2019/09/15 13:54:49;;;;;;;1.9;1.3;;;;;;;;;;;;;
2019/09/15 13:57:22;;;;;;;2.2;1.3;;;;;;;;;;;;;
2019/09/15 14:00:23;;;;;;;3.1;1.3;;;;;;;;;;;;;
2019/09/15 14:02:46;;;;;;;2.3;1.4;;;;;;;;;;;;;
2019/09/15 14:05:11;;;;;;;4;1.3;;;;;;;;;;;;;
2019/09/15 14:07:36;;;;;;;1.4;1.2;;;;;;;;;;;;;
2019/09/15 14:10:16;;;;;;;3.9;1.4;;;;;;;;;;;;;
2019/09/15 14:12:39;;;;;;;3.6;1.3;;;;;;;;;;;;;
2019/09/15 14:15:09;;;;;;;2.9;1.5;;;;;;;;;;;;;
2019/09/15 14:17:35;;;;;;;2.2;1.6;;;;;;;;;;;;;
2019/09/15 14:19:56;;;;;;;2.4;1.4;;;;;;;;;;;;;
2019/09/15 14:22:21;;;;;;;2.9;1.6;;;;;;;;;;;;;
2019/09/15 14:24:46;;;;;;;2.3;1.6;;;;;;;;;;;;;
2019/09/15 14:27:21;;;;;;;3;1.5;;;;;;;;;;;;;
2019/09/15 14:29:46;;;;;;;2.6;1.7;;;;;;;;;;;;;
2019/09/15 14:32:10;;;;;;;5.6;1.7;;;;;;;;;;;;;
2019/09/15 14:34:36;;;;;;;4.9;1.4;;;;;;;;;;;;;
2019/09/15 14:37:19;;;;;;;3.4;1.8;;;;;;;;;;;;;
2019/09/15 14:39:50;;;;;;;3.5;1.6;;;;;;;;;;;;;
2019/09/15 14:42:11;;;;;;;3.6;1.6;;;;;;;;;;;;;
2019/09/15 14:44:35;;;;;;;4.1;1.5;;;;;;;;;;;;;
2019/09/15 14:47:20;;;;;;;2.6;1.4;;;;;;;;;;;;;
2019/09/15 14:49:31;;;;;;;3;1.6;;;;;;;;;;;;;
2019/09/15 14:51:53;;;;;;;3.4;1.7;;;;;;;;;;;;;
2019/09/15 14:54:17;;;;;;;5;1.6;;;;;;;;;;;;;
2019/09/15 14:56:47;;;;;;;3.2;1.7;;;;;;;;;;;;;
2019/09/15 14:59:10;;;;;;;3.4;1.6;;;;;;;;;;;;;
2019/09/15 15:01:34;;;;;;;3.3;1.6;;;;;;;;;;;;;
2019/09/15 15:04:03;;;;;;;2.8;1.7;;;;;;;;;;;;;
2019/09/15 15:06:28;;;;;;;2.5;1.7;;;;;;;;;;;;;
2019/09/15 15:11:15;;;;;;;2.7;1.8;;;;;;;;;;;;;
2019/09/15 15:13:43;;;;;;;3.4;2;;;;;;;;;;;;;
2019/09/15 15:16:19;;;;;;;3.6;2;;;;;;;;;;;;;
2019/09/15 15:18:32;;;;;;;3.8;1.8;;;;;;;;;;;;;
2019/09/15 15:20:57;;;;;;;4.5;1.8;;;;;;;;;;;;;
2019/09/15 15:23:24;;;;;;;3.5;1.8;;;;;;;;;;;;;
2019/09/15 15:25:48;;;;;;;2.8;1.9;;;;;;;;;;;;;
2019/09/15 15:28:12;;;;;;;2.2;1.7;;;;;;;;;;;;;
2019/09/15 15:30:45;;;;;;;3.2;1.7;;;;;;;;;;;;;
2019/09/15 15:33:11;;;;;;;3.9;1.9;;;;;;;;;;;;;
2019/09/15 15:35:36;;;;;;;4.6;1.7;;;;;;;;;;;;;
2019/09/15 15:38:05;;;;;;;3.4;1.9;;;;;;;;;;;;;
2019/09/15 15:40:27;;;;;;;2.7;1.7;;;;;;;;;;;;;
2019/09/15 15:42:52;;;;;;;2.1;1.9;;;;;;;;;;;;;
2019/09/15 15:45:19;;;;;;;4.2;2;;;;;;;;;;;;;
2019/09/15 15:47:43;;;;;;;3.3;1.8;;;;;;;;;;;;;
2019/09/15 15:50:18;;;;;;;3;1.8;;;;;;;;;;;;;
2019/09/15 15:52:44;;;;;;;4.9;1.9;;;;;;;;;;;;;
2019/09/15 15:55:12;;;;;;;3.4;1.9;;;;;;;;;;;;;
2019/09/15 15:57:37;;;;;;;3.4;1.8;;;;;;;;;;;;;
2019/09/15 16:00:02;;;;;;;3.9;2.2;;;;;;;;;;;;;
2019/09/15 16:02:32;;;;;;;3.7;2;;;;;;;;;;;;;
2019/09/15 16:04:57;;;;;;;3.7;1.9;;;;;;;;;;;;;
2019/09/15 16:07:26;;;;;;;2.5;1.8;;;;;;;;;;;;;
2019/09/15 16:09:49;;;;;;;5.2;2;;;;;;;;;;;;;
2019/09/15 16:12:14;;;;;;;2.4;1.9;;;;;;;;;;;;;
2019/09/15 16:14:37;;;;;;;4.4;2.1;;;;;;;;;;;;;
2019/09/15 16:17:07;;;;;;;2.8;2;;;;;;;;;;;;;
2019/09/15 16:19:32;;;;;;;3.3;1.8;;;;;;;;;;;;;
2019/09/15 16:21:58;;;;;;;4.6;2;;;;;;;;;;;;;
2019/09/15 16:24:24;;;;;;;2.8;2;;;;;;;;;;;;;
2019/09/15 16:26:51;;;;;;;3.4;1.9;;;;;;;;;;;;;
2019/09/15 16:29:16;;;;;;;5.1;2.1;;;;;;;;;;;;;
2019/09/15 16:31:47;;;;;;;4.1;2;;;;;;;;;;;;;
2019/09/15 16:34:15;;;;;;;4.2;2;;;;;;;;;;;;;
2019/09/15 16:39:21;;;;;;;4.6;2.2;;;;;;;;;;;;;
2019/09/15 16:41:45;;;;;;;3.2;2.1;;;;;;;;;;;;;
2019/09/15 16:44:10;;;;;;;4.2;2.5;;;;;;;;;;;;;
2019/09/15 16:46:33;;;;;;;5;2.2;;;;;;;;;;;;;
2019/09/15 16:49:00;;;;;;;3.9;2.4;;;;;;;;;;;;;
2019/09/15 16:51:27;;;;;;;4.8;2.1;;;;;;;;;;;;;
2019/09/15 16:53:50;;;;;;;4.4;2.2;;;;;;;;;;;;;
2019/09/15 16:56:15;;;;;;;2.6;2.3;;;;;;;;;;;;;
2019/09/15 16:58:39;;;;;;;5.9;2.2;;;;;;;;;;;;;
2019/09/15 17:01:06;;;;;;;4;2.1;;;;;;;;;;;;;
2019/09/15 17:03:30;;;;;;;4.3;2.4;;;;;;;;;;;;;
2019/09/15 17:06:01;;;;;;;4;2.3;;;;;;;;;;;;;
2019/09/15 17:08:26;;;;;;;3.7;2.2;;;;;;;;;;;;;
2019/09/15 17:13:13;;;;;;;2.7;2.3;;;;;;;;;;;;;
2019/09/15 17:15:45;;;;;;;5.4;2.8;;;;;;;;;;;;;
2019/09/15 17:18:09;;;;;;;4.2;2.7;;;;;;;;;;;;;
2019/09/15 17:20:39;;;;;;;8.2;2.6;;;;;;;;;;;;;
2019/09/15 17:23:01;;;;;;;8.3;2.8;;;;;;;;;;;;;
2019/09/15 17:25:26;;;;;;;7.7;2.7;;;;;;;;;;;;;
2019/09/15 17:27:50;;;;;;;17.6;9.3;;;;;;;;;;;;;
2019/09/15 17:30:19;;;;;;;22.1;11.5;;;;;;;;;;;;;
2019/09/15 17:32:45;;;;;;;20.2;10.2;;;;;;;;;;;;;
2019/09/15 17:35:07;;;;;;;19.1;12.1;;;;;;;;;;;;;
2019/09/15 17:37:32;;;;;;;19;13.8;;;;;;;;;;;;;
2019/09/15 17:40:00;;;;;;;13.9;8.7;;;;;;;;;;;;;
2019/09/15 17:42:22;;;;;;;12.2;7.9;;;;;;;;;;;;;
2019/09/15 17:44:49;;;;;;;12.1;8.1;;;;;;;;;;;;;
2019/09/15 17:47:20;;;;;;;9.9;4.2;;;;;;;;;;;;;
2019/09/15 17:49:45;;;;;;;8.5;4;;;;;;;;;;;;;
2019/09/15 17:52:04;;;;;;;9.3;4.3;;;;;;;;;;;;;
2019/09/15 17:54:48;;;;;;;10.9;5.7;;;;;;;;;;;;;
2019/09/15 17:57:12;;;;;;;12.2;5.3;;;;;;;;;;;;;
2019/09/15 17:59:43;;;;;;;9.4;4.8;;;;;;;;;;;;;
2019/09/15 18:02:21;;;;;;;7.7;4.6;;;;;;;;;;;;;
2019/09/15 18:04:28;;;;;;;7.8;5.3;;;;;;;;;;;;;
2019/09/15 18:06:55;;;;;;;11.3;5.5;;;;;;;;;;;;;
2019/09/15 18:09:23;;;;;;;9;5.4;;;;;;;;;;;;;
2019/09/15 18:11:48;;;;;;;6.8;3.7;;;;;;;;;;;;;
2019/09/15 18:14:23;;;;;;;5.8;3.2;;;;;;;;;;;;;
2019/09/15 18:16:50;;;;;;;9.8;3.2;;;;;;;;;;;;;
2019/09/15 18:19:15;;;;;;;7;3.2;;;;;;;;;;;;;
2019/09/15 18:21:38;;;;;;;9.6;3.3;;;;;;;;;;;;;
2019/09/15 18:24:08;;;;;;;4.3;2.9;;;;;;;;;;;;;
2019/09/15 18:26:37;;;;;;;8.7;3.5;;;;;;;;;;;;;
2019/09/15 18:28:58;;;;;;;6.6;3.1;;;;;;;;;;;;;
2019/09/15 18:31:28;;;;;;;6.6;3.3;;;;;;;;;;;;;
2019/09/15 18:33:53;;;;;;;7.7;3.6;;;;;;;;;;;;;
2019/09/15 18:36:17;;;;;;;6.3;3.6;;;;;;;;;;;;;
2019/09/15 18:38:49;;;;;;;6.9;3.8;;;;;;;;;;;;;
2019/09/15 18:41:10;;;;;;;8.2;4.7;;;;;;;;;;;;;
2019/09/15 18:43:34;;;;;;;6.3;4.5;;;;;;;;;;;;;
2019/09/15 18:45:59;;;;;;;8.9;5.3;;;;;;;;;;;;;
2019/09/15 18:48:39;;;;;;;10.7;6.3;;;;;;;;;;;;;
2019/09/15 18:51:04;;;;;;;9.1;5.9;;;;;;;;;;;;;
2019/09/15 18:53:31;;;;;;;10.1;5.1;;;;;;;;;;;;;
2019/09/15 18:55:59;;;;;;;6.7;4.4;;;;;;;;;;;;;
2019/09/15 18:58:19;;;;;;;7.3;4.6;;;;;;;;;;;;;
2019/09/15 19:00:44;;;;;;;6.7;4.4;;;;;;;;;;;;;
2019/09/15 19:05:36;;;;;;;7.8;4.8;;;;;;;;;;;;;
2019/09/15 19:08:01;;;;;;;5.9;4.3;;;;;;;;;;;;;
2019/09/15 19:10:24;;;;;;;4.9;3.6;;;;;;;;;;;;;
2019/09/15 19:12:54;;;;;;;7.7;3.6;;;;;;;;;;;;;
2019/09/15 19:15:18;;;;;;;6.5;3.1;;;;;;;;;;;;;
2019/09/15 19:17:42;;;;;;;5.6;3.3;;;;;;;;;;;;;
2019/09/15 19:20:20;;;;;;;5.3;3.6;;;;;;;;;;;;;
2019/09/15 19:22:45;;;;;;;7.4;3.6;;;;;;;;;;;;;
2019/09/15 19:25:18;;;;;;;6.4;3.9;;;;;;;;;;;;;
2019/09/15 19:27:44;;;;;;;5.7;3.5;;;;;;;;;;;;;
2019/09/15 19:30:08;;;;;;;7.9;3.7;;;;;;;;;;;;;
2019/09/15 19:32:34;;;;;;;7.7;4.6;;;;;;;;;;;;;
2019/09/15 19:34:59;;;;;;;6.6;4;;;;;;;;;;;;;
2019/09/15 19:37:23;;;;;;;6;3.6;;;;;;;;;;;;;
2019/09/15 19:39:49;;;;;;;4.8;3.5;;;;;;;;;;;;;
2019/09/15 19:42:13;;;;;;;7.5;3.9;;;;;;;;;;;;;
2019/09/15 19:44:42;;;;;;;6.7;3.7;;;;;;;;;;;;;
2019/09/15 19:47:04;;;;;;;6.7;3.9;;;;;;;;;;;;;
2019/09/15 19:49:30;;;;;;;4.9;3.4;;;;;;;;;;;;;
2019/09/15 19:51:57;;;;;;;5;3.4;;;;;;;;;;;;;
2019/09/15 19:54:21;;;;;;;5;3.8;;;;;;;;;;;;;
2019/09/15 19:56:45;;;;;;;4.7;3.4;;;;;;;;;;;;;
2019/09/15 19:59:09;;;;;;;8.5;3.8;;;;;;;;;;;;;
2019/09/15 20:01:34;;;;;;;7.5;3.8;;;;;;;;;;;;;
2019/09/15 20:04:02;;;;;;;5.6;3.8;;;;;;;;;;;;;
2019/09/15 20:06:26;;;;;;;7;3.8;;;;;;;;;;;;;
2019/09/15 20:08:51;;;;;;;9.2;3.8;;;;;;;;;;;;;
2019/09/15 20:11:15;;;;;;;7.6;3.6;;;;;;;;;;;;;
2019/09/15 20:16:27;;;;;;;8.5;4.1;;;;;;;;;;;;;
2019/09/15 20:18:50;;;;;;;6.7;3.7;;;;;;;;;;;;;
2019/09/15 20:21:24;;;;;;;7.7;4;;;;;;;;;;;;;
2019/09/15 20:24:18;;;;;;;6.9;4;;;;;;;;;;;;;
2019/09/15 20:26:33;;;;;;;7;3.6;;;;;;;;;;;;;
2019/09/15 20:29:00;;;;;;;7.3;4;;;;;;;;;;;;;
2019/09/15 20:31:26;;;;;;;7.4;4.2;;;;;;;;;;;;;
2019/09/15 20:33:51;;;;;;;6;4;;;;;;;;;;;;;
2019/09/15 20:36:16;;;;;;;5.2;3.8;;;;;;;;;;;;;
2019/09/15 20:38:41;;;;;;;6.6;3.4;;;;;;;;;;;;;
2019/09/15 20:41:10;;;;;;;7.2;3.7;;;;;;;;;;;;;
2019/09/15 20:43:35;;;;;;;5.6;3.6;;;;;;;;;;;;;
2019/09/15 20:45:56;;;;;;;5;3.5;;;;;;;;;;;;;
2019/09/15 20:48:27;;;;;;;5.7;3.7;;;;;;;;;;;;;
2019/09/15 20:50:51;;;;;;;4.8;3.6;;;;;;;;;;;;;
2019/09/15 20:53:12;;;;;;;5.5;3.8;;;;;;;;;;;;;
2019/09/15 20:58:15;;;;;;;5.9;3.8;;;;;;;;;;;;;
2019/09/15 21:00:42;;;;;;;5.9;4;;;;;;;;;;;;;
2019/09/15 21:03:06;;;;;;;8.7;4;;;;;;;;;;;;;